Lac La Biche, Alberta

Conditions des dernières 24 heures

Date / Heure
(HNR)
Conditions Temp
(°C)
Humidité
(%)
Point de rosée
(°C)
Vent
(km/h)
Pression
(kPa)
Vis
(km)
Refr. éolien
27 novembre 2014
3:00 N.D. -11   90 -12 NNE 12 102,5 N.D. -17
2:00 N.D. -11   90 -12 N 7 102,6 N.D. -15
1:00 N.D. -11   89 -12 N 7 102,6 N.D. -15
0:00 N.D. -11   88 -13 NNE 3 102,5 N.D. -13
26 novembre 2014
23:00 N.D. -11   87 -12 calme 102,5 N.D. *
22:00 N.D. -11   87 -13 SSO 2 102,5 N.D. -12
21:00 N.D. -11   87 -13 S 4 102,6 N.D. -13
20:00 N.D. -11   86 -13 SSE 3 102,6 N.D. -13
19:00 N.D. -11   85 -13 SSE 7 102,6 N.D. -16
18:00 N.D. -11   83 -13 ESE 4 102,6 N.D. -13
17:00 N.D. -11   83 -13 S 10 102,6 N.D. -16
16:00 N.D. -11   82 -14 SSE 7 102,6 N.D. -15
15:00 N.D. -11   81 -14 SSE 5 102,6 N.D. -14
14:00 N.D. -12 81 -15 S 10 102,7 N.D. -18
13:00 N.D. -13 80 -16 SSE 15 102,8 N.D. -20
12:00 N.D. -14 80 -16 S 14 102,8 N.D. -21
11:00 N.D. -15 81 -17 SSE 11 102,9 N.D. -21
10:00 N.D. -15 83 -18 SSE 11 102,9 N.D. -22
9:00 N.D. -16 84 -18 SSE 11 102,9 N.D. -23
8:00 N.D. -16 83 -18 SSE 9 102,9 N.D. -22
7:00 N.D. -16 84 -18 SSE 9 102,9 N.D. -22
6:00 N.D. -16 85 -18 SE 5 102,9 N.D. -20
5:00 N.D. -17   85 -19 ESE 6 103,0 N.D. -21
4:00 N.D. -17   85 -19 SE 6 103,0 N.D. -21
3:00 N.D. -17   84 -19 SE 7 103,0 N.D. -22
N.D. non disponible
↑ température la plus haute
↓ température la plus basse
* Valeur non significative.

Si vous désirez plus de données historiques sur les conditions météo, s.v.p. visitez Données climatologiques en ligne.

Date de modification :